Terminal Aerodrome Forecast
Issued by NWS

Home | Current Version | Previous Version | Text Only | Print | Product List | Glossary On
Versions: 1 2 3 4 5 6 7 8 9 10 11 12 13 14 15 16 17 18 19
000
FTUS44 KSJT 190700 AAA
TAFJCT
TAF AMD
KJCT 190735Z 1908/2006 05007KT 5SM -SHRA BR OVC007
      TEMPO 1908/1912 2SM TSRA BR BKN004CB
     FM191700 03004KT 6SM BR OVC015
     FM191900 02005KT P6SM BKN025
     FM192300 VRB03KT P6SM SCT030=

USA.gov is the U.S. government's official web portal to all federal, state and local government web resources and services.